Long Beach, New Jersey
Current Conditions -  °F | °C
As of 12:35 AM on Sunday 21 Dec 2014 (Local Time) from KMJX Reporting Station
Broken Clouds Broken Clouds  
Wind Chill: 21°   Ceiling: 3200
Heat Index: 21°   Visibility: 10mi
Dew Point: 21°   Wind: 0mph
Humidity: 100%   Direction: NA
Pressure: 30.29"   Gusts: NA
Location:  39.623°N, 74.1974°W
Report Text: KMJX 210535Z AUTO 00000KT 10SM BKN032 M06/M06 A3029 RMK AO1
Loading
Personal Weather Stations






























Interactive Weather Map New forecast layout! Learn more

10-Day Weather Forecast

Advertisements
Track Severe Weather on mobile